sensor_id;sensor_type;location;lat;lon;timestamp;P1;durP1;ratioP1;P2;durP2;ratioP2
75061;SDS011;63641;46.526;24.612;2022-12-16T00:01:24;17.15;;;13.65;;
75061;SDS011;63641;46.526;24.612;2022-12-16T00:03:52;24.00;;;16.85;;
75061;SDS011;63641;46.526;24.612;2022-12-16T00:06:21;132.95;;;24.42;;
75061;SDS011;63641;46.526;24.612;2022-12-16T00:08:50;279.85;;;27.30;;
75061;SDS011;63641;46.526;24.612;2022-12-16T00:11:17;74.72;;;21.65;;
75061;SDS011;63641;46.526;24.612;2022-12-16T00:13:45;34.38;;;21.25;;
75061;SDS011;63641;46.526;24.612;2022-12-16T00:16:13;38.50;;;22.65;;
75061;SDS011;63641;46.526;24.612;2022-12-16T00:18:42;75.97;;;20.88;;
75061;SDS011;63641;46.526;24.612;2022-12-16T00:21:09;30.05;;;19.52;;
75061;SDS011;63641;46.526;24.612;2022-12-16T00:23:37;31.35;;;19.33;;
75061;SDS011;63641;46.526;24.612;2022-12-16T00:26:10;29.60;;;18.65;;
75061;SDS011;63641;46.526;24.612;2022-12-16T00:28:38;28.77;;;19.80;;
75061;SDS011;63641;46.526;24.612;2022-12-16T00:31:05;28.05;;;18.48;;
75061;SDS011;63641;46.526;24.612;2022-12-16T00:33:32;23.80;;;17.00;;
75061;SDS011;63641;46.526;24.612;2022-12-16T00:36:00;28.08;;;18.23;;
75061;SDS011;63641;46.526;24.612;2022-12-16T00:38:27;25.35;;;15.52;;
75061;SDS011;63641;46.526;24.612;2022-12-16T00:40:54;25.48;;;16.60;;
75061;SDS011;63641;46.526;24.612;2022-12-16T00:43:21;22.92;;;15.10;;
75061;SDS011;63641;46.526;24.612;2022-12-16T00:45:47;37.63;;;22.40;;
75061;SDS011;63641;46.526;24.612;2022-12-16T00:48:17;44.50;;;23.08;;
75061;SDS011;63641;46.526;24.612;2022-12-16T00:50:45;41.67;;;23.52;;
75061;SDS011;63641;46.526;24.612;2022-12-16T00:53:17;36.60;;;22.10;;
75061;SDS011;63641;46.526;24.612;2022-12-16T00:55:44;40.95;;;24.85;;
75061;SDS011;63641;46.526;24.612;2022-12-16T00:58:12;47.65;;;26.65;;
75061;SDS011;63641;46.526;24.612;2022-12-16T01:00:39;40.53;;;24.17;;
75061;SDS011;63641;46.526;24.612;2022-12-16T01:03:06;44.83;;;23.83;;
75061;SDS011;63641;46.526;24.612;2022-12-16T01:05:33;52.30;;;23.38;;
75061;SDS011;63641;46.526;24.612;2022-12-16T01:08:03;53.28;;;24.55;;
75061;SDS011;63641;46.526;24.612;2022-12-16T01:10:30;37.88;;;21.58;;
75061;SDS011;63641;46.526;24.612;2022-12-16T01:12:57;43.70;;;22.17;;
75061;SDS011;63641;46.526;24.612;2022-12-16T01:15:24;33.85;;;21.25;;
75061;SDS011;63641;46.526;24.612;2022-12-16T01:17:50;36.00;;;20.30;;
75061;SDS011;63641;46.526;24.612;2022-12-16T01:20:17;32.20;;;20.20;;
75061;SDS011;63641;46.526;24.612;2022-12-16T01:22:44;34.15;;;20.67;;
75061;SDS011;63641;46.526;24.612;2022-12-16T01:25:10;29.33;;;20.52;;
75061;SDS011;63641;46.526;24.612;2022-12-16T01:27:40;27.48;;;17.85;;
75061;SDS011;63641;46.526;24.612;2022-12-16T01:30:07;29.55;;;18.23;;
75061;SDS011;63641;46.526;24.612;2022-12-16T01:32:36;24.85;;;18.00;;
75061;SDS011;63641;46.526;24.612;2022-12-16T01:35:03;24.77;;;18.05;;
75061;SDS011;63641;46.526;24.612;2022-12-16T01:37:48;25.17;;;17.00;;
75061;SDS011;63641;46.526;24.612;2022-12-16T01:40:16;25.50;;;17.45;;
75061;SDS011;63641;46.526;24.612;2022-12-16T01:42:44;22.63;;;16.98;;
75061;SDS011;63641;46.526;24.612;2022-12-16T01:47:51;28.77;;;19.30;;
75061;SDS011;63641;46.526;24.612;2022-12-16T01:50:20;31.40;;;19.45;;
75061;SDS011;63641;46.526;24.612;2022-12-16T01:52:48;28.80;;;18.45;;
75061;SDS011;63641;46.526;24.612;2022-12-16T01:55:22;26.43;;;18.67;;
75061;SDS011;63641;46.526;24.612;2022-12-16T01:57:54;31.98;;;21.15;;
75061;SDS011;63641;46.526;24.612;2022-12-16T02:00:41;29.95;;;19.48;;
75061;SDS011;63641;46.526;24.612;2022-12-16T02:03:08;38.20;;;22.67;;
75061;SDS011;63641;46.526;24.612;2022-12-16T02:05:37;37.28;;;22.23;;
75061;SDS011;63641;46.526;24.612;2022-12-16T02:08:11;36.55;;;21.08;;
75061;SDS011;63641;46.526;24.612;2022-12-16T02:13:13;37.30;;;22.60;;
75061;SDS011;63641;46.526;24.612;2022-12-16T02:18:56;36.58;;;22.90;;
75061;SDS011;63641;46.526;24.612;2022-12-16T02:21:47;32.78;;;22.83;;
75061;SDS011;63641;46.526;24.612;2022-12-16T02:25:02;37.50;;;23.88;;
75061;SDS011;63641;46.526;24.612;2022-12-16T02:35:39;22.70;;;16.33;;
75061;SDS011;63641;46.526;24.612;2022-12-16T02:38:24;23.75;;;16.38;;
75061;SDS011;63641;46.526;24.612;2022-12-16T02:41:00;23.50;;;20.42;;
75061;SDS011;63641;46.526;24.612;2022-12-16T02:46:14;32.05;;;20.73;;
75061;SDS011;63641;46.526;24.612;2022-12-16T02:48:43;43.53;;;27.10;;
75061;SDS011;63641;46.526;24.612;2022-12-16T02:51:09;43.35;;;27.88;;
75061;SDS011;63641;46.526;24.612;2022-12-16T02:53:37;43.90;;;29.75;;
75061;SDS011;63641;46.526;24.612;2022-12-16T03:04:32;36.40;;;24.83;;
75061;SDS011;63641;46.526;24.612;2022-12-16T03:07:17;35.17;;;23.60;;
75061;SDS011;63641;46.526;24.612;2022-12-16T03:09:47;34.42;;;24.40;;
75061;SDS011;63641;46.526;24.612;2022-12-16T03:12:16;38.17;;;24.20;;
75061;SDS011;63641;46.526;24.612;2022-12-16T03:14:46;33.50;;;23.05;;
75061;SDS011;63641;46.526;24.612;2022-12-16T03:17:15;37.35;;;23.02;;
75061;SDS011;63641;46.526;24.612;2022-12-16T03:19:44;32.88;;;22.02;;
75061;SDS011;63641;46.526;24.612;2022-12-16T03:22:19;30.23;;;20.55;;
75061;SDS011;63641;46.526;24.612;2022-12-16T03:24:49;30.92;;;20.30;;
75061;SDS011;63641;46.526;24.612;2022-12-16T03:27:17;28.17;;;20.70;;
75061;SDS011;63641;46.526;24.612;2022-12-16T03:32:35;26.65;;;18.52;;
75061;SDS011;63641;46.526;24.612;2022-12-16T03:37:39;26.38;;;18.17;;
75061;SDS011;63641;46.526;24.612;2022-12-16T03:40:08;31.08;;;20.00;;
75061;SDS011;63641;46.526;24.612;2022-12-16T03:42:36;26.42;;;18.25;;
75061;SDS011;63641;46.526;24.612;2022-12-16T03:45:05;25.85;;;17.98;;
75061;SDS011;63641;46.526;24.612;2022-12-16T03:47:33;24.90;;;17.52;;
75061;SDS011;63641;46.526;24.612;2022-12-16T03:50:00;25.60;;;19.05;;
75061;SDS011;63641;46.526;24.612;2022-12-16T03:52:27;31.05;;;22.00;;
75061;SDS011;63641;46.526;24.612;2022-12-16T03:54:54;27.52;;;20.70;;
75061;SDS011;63641;46.526;24.612;2022-12-16T03:57:21;31.50;;;21.55;;
75061;SDS011;63641;46.526;24.612;2022-12-16T03:59:47;29.63;;;21.17;;
75061;SDS011;63641;46.526;24.612;2022-12-16T04:02:14;26.60;;;18.90;;
75061;SDS011;63641;46.526;24.612;2022-12-16T04:04:41;27.05;;;19.25;;
75061;SDS011;63641;46.526;24.612;2022-12-16T04:07:08;28.35;;;19.00;;
75061;SDS011;63641;46.526;24.612;2022-12-16T04:09:47;29.50;;;19.30;;
75061;SDS011;63641;46.526;24.612;2022-12-16T04:12:14;29.58;;;19.45;;
75061;SDS011;63641;46.526;24.612;2022-12-16T04:15:00;70.93;;;20.48;;
75061;SDS011;63641;46.526;24.612;2022-12-16T04:17:45;34.30;;;20.48;;
75061;SDS011;63641;46.526;24.612;2022-12-16T04:20:32;37.15;;;24.73;;
75061;SDS011;63641;46.526;24.612;2022-12-16T04:23:21;29.13;;;20.13;;
75061;SDS011;63641;46.526;24.612;2022-12-16T04:26:09;29.27;;;20.42;;
75061;SDS011;63641;46.526;24.612;2022-12-16T04:28:36;32.05;;;21.33;;
75061;SDS011;63641;46.526;24.612;2022-12-16T04:31:03;35.92;;;24.83;;
75061;SDS011;63641;46.526;24.612;2022-12-16T04:33:31;33.70;;;23.65;;
75061;SDS011;63641;46.526;24.612;2022-12-16T04:36:16;34.67;;;23.80;;
75061;SDS011;63641;46.526;24.612;2022-12-16T04:39:02;34.47;;;23.40;;
75061;SDS011;63641;46.526;24.612;2022-12-16T04:41:52;27.90;;;20.73;;
75061;SDS011;63641;46.526;24.612;2022-12-16T04:44:38;37.05;;;24.77;;
75061;SDS011;63641;46.526;24.612;2022-12-16T04:47:24;31.05;;;20.58;;
75061;SDS011;63641;46.526;24.612;2022-12-16T04:50:09;31.35;;;21.05;;
75061;SDS011;63641;46.526;24.612;2022-12-16T04:52:55;31.35;;;21.27;;
75061;SDS011;63641;46.526;24.612;2022-12-16T04:55:40;33.08;;;23.92;;
75061;SDS011;63641;46.526;24.612;2022-12-16T04:58:29;37.22;;;23.10;;
75061;SDS011;63641;46.526;24.612;2022-12-16T05:01:15;33.17;;;22.35;;
75061;SDS011;63641;46.526;24.612;2022-12-16T05:04:01;34.33;;;22.30;;
75061;SDS011;63641;46.526;24.612;2022-12-16T05:06:46;29.92;;;20.90;;
75061;SDS011;63641;46.526;24.612;2022-12-16T05:09:32;31.80;;;23.08;;
75061;SDS011;63641;46.526;24.612;2022-12-16T05:12:17;31.92;;;22.02;;
75061;SDS011;63641;46.526;24.612;2022-12-16T05:15:03;29.42;;;21.00;;
75061;SDS011;63641;46.526;24.612;2022-12-16T05:17:49;27.20;;;19.02;;
75061;SDS011;63641;46.526;24.612;2022-12-16T05:20:34;25.75;;;18.25;;
75061;SDS011;63641;46.526;24.612;2022-12-16T05:23:20;28.77;;;20.38;;
75061;SDS011;63641;46.526;24.612;2022-12-16T05:26:19;23.55;;;14.82;;
75061;SDS011;63641;46.526;24.612;2022-12-16T05:29:04;25.63;;;17.77;;
75061;SDS011;63641;46.526;24.612;2022-12-16T05:31:49;21.50;;;16.65;;
75061;SDS011;63641;46.526;24.612;2022-12-16T05:34:35;27.83;;;19.35;;
75061;SDS011;63641;46.526;24.612;2022-12-16T05:37:20;31.00;;;21.83;;
75061;SDS011;63641;46.526;24.612;2022-12-16T05:40:16;35.95;;;25.58;;
75061;SDS011;63641;46.526;24.612;2022-12-16T05:43:06;32.10;;;23.35;;
75061;SDS011;63641;46.526;24.612;2022-12-16T05:45:52;32.40;;;23.15;;
75061;SDS011;63641;46.526;24.612;2022-12-16T05:48:36;32.42;;;22.83;;
75061;SDS011;63641;46.526;24.612;2022-12-16T05:51:42;33.72;;;23.33;;
75061;SDS011;63641;46.526;24.612;2022-12-16T05:54:27;30.00;;;19.98;;
75061;SDS011;63641;46.526;24.612;2022-12-16T05:57:13;27.10;;;19.58;;
75061;SDS011;63641;46.526;24.612;2022-12-16T06:00:09;25.95;;;19.15;;
75061;SDS011;63641;46.526;24.612;2022-12-16T06:02:54;28.77;;;19.85;;
75061;SDS011;63641;46.526;24.612;2022-12-16T06:05:40;26.40;;;19.40;;
75061;SDS011;63641;46.526;24.612;2022-12-16T06:08:25;23.55;;;17.42;;
75061;SDS011;63641;46.526;24.612;2022-12-16T06:11:10;24.95;;;17.88;;
75061;SDS011;63641;46.526;24.612;2022-12-16T06:13:56;21.98;;;15.13;;
75061;SDS011;63641;46.526;24.612;2022-12-16T06:16:41;22.73;;;17.08;;
75061;SDS011;63641;46.526;24.612;2022-12-16T06:19:27;20.10;;;16.42;;
75061;SDS011;63641;46.526;24.612;2022-12-16T06:22:12;20.35;;;15.82;;
75061;SDS011;63641;46.526;24.612;2022-12-16T06:24:57;17.15;;;13.55;;
75061;SDS011;63641;46.526;24.612;2022-12-16T06:27:47;18.15;;;14.80;;
75061;SDS011;63641;46.526;24.612;2022-12-16T06:30:35;16.00;;;12.60;;
75061;SDS011;63641;46.526;24.612;2022-12-16T06:33:21;15.55;;;12.20;;
75061;SDS011;63641;46.526;24.612;2022-12-16T06:36:07;15.70;;;12.00;;
75061;SDS011;63641;46.526;24.612;2022-12-16T06:38:52;13.70;;;11.05;;
75061;SDS011;63641;46.526;24.612;2022-12-16T06:41:38;12.65;;;10.10;;
75061;SDS011;63641;46.526;24.612;2022-12-16T06:44:23;13.50;;;11.15;;
75061;SDS011;63641;46.526;24.612;2022-12-16T06:47:08;10.82;;;9.75;;
75061;SDS011;63641;46.526;24.612;2022-12-16T06:49:54;11.55;;;10.40;;
75061;SDS011;63641;46.526;24.612;2022-12-16T06:52:42;11.25;;;9.27;;
75061;SDS011;63641;46.526;24.612;2022-12-16T06:55:27;10.13;;;8.98;;
75061;SDS011;63641;46.526;24.612;2022-12-16T06:58:13;10.48;;;9.38;;
75061;SDS011;63641;46.526;24.612;2022-12-16T07:00:58;24.10;;;18.67;;
75061;SDS011;63641;46.526;24.612;2022-12-16T07:03:43;22.73;;;13.10;;
75061;SDS011;63641;46.526;24.612;2022-12-16T07:06:28;20.20;;;13.98;;
75061;SDS011;63641;46.526;24.612;2022-12-16T07:09:14;18.92;;;13.55;;
75061;SDS011;63641;46.526;24.612;2022-12-16T07:12:00;23.67;;;15.77;;
75061;SDS011;63641;46.526;24.612;2022-12-16T07:14:45;20.95;;;14.35;;
75061;SDS011;63641;46.526;24.612;2022-12-16T07:17:30;20.75;;;14.65;;
75061;SDS011;63641;46.526;24.612;2022-12-16T07:20:16;27.38;;;16.80;;
75061;SDS011;63641;46.526;24.612;2022-12-16T07:23:00;17.20;;;14.05;;
75061;SDS011;63641;46.526;24.612;2022-12-16T07:25:48;20.35;;;14.40;;
75061;SDS011;63641;46.526;24.612;2022-12-16T07:28:33;19.67;;;13.68;;
75061;SDS011;63641;46.526;24.612;2022-12-16T07:31:19;17.02;;;13.23;;
75061;SDS011;63641;46.526;24.612;2022-12-16T07:34:04;14.48;;;11.68;;
75061;SDS011;63641;46.526;24.612;2022-12-16T07:36:49;21.83;;;14.13;;
75061;SDS011;63641;46.526;24.612;2022-12-16T07:39:34;12.43;;;9.35;;
75061;SDS011;63641;46.526;24.612;2022-12-16T07:42:21;17.30;;;10.85;;
75061;SDS011;63641;46.526;24.612;2022-12-16T07:45:07;10.07;;;7.20;;
75061;SDS011;63641;46.526;24.612;2022-12-16T07:47:53;10.25;;;8.43;;
75061;SDS011;63641;46.526;24.612;2022-12-16T07:50:39;9.05;;;6.40;;
75061;SDS011;63641;46.526;24.612;2022-12-16T07:53:25;9.27;;;6.80;;
75061;SDS011;63641;46.526;24.612;2022-12-16T07:56:10;7.97;;;5.95;;
75061;SDS011;63641;46.526;24.612;2022-12-16T07:58:56;7.65;;;5.85;;
75061;SDS011;63641;46.526;24.612;2022-12-16T08:01:49;6.97;;;5.13;;
75061;SDS011;63641;46.526;24.612;2022-12-16T08:04:35;8.70;;;5.55;;
75061;SDS011;63641;46.526;24.612;2022-12-16T08:07:21;10.15;;;6.05;;
75061;SDS011;63641;46.526;24.612;2022-12-16T08:10:11;12.18;;;6.60;;
75061;SDS011;63641;46.526;24.612;2022-12-16T08:13:03;9.30;;;6.47;;
75061;SDS011;63641;46.526;24.612;2022-12-16T08:15:51;11.50;;;6.28;;
75061;SDS011;63641;46.526;24.612;2022-12-16T08:18:36;7.55;;;4.93;;
75061;SDS011;63641;46.526;24.612;2022-12-16T08:21:32;4.05;;;3.60;;
75061;SDS011;63641;46.526;24.612;2022-12-16T08:24:18;5.00;;;3.63;;
75061;SDS011;63641;46.526;24.612;2022-12-16T08:27:03;4.65;;;3.63;;
75061;SDS011;63641;46.526;24.612;2022-12-16T08:29:48;4.22;;;3.38;;
75061;SDS011;63641;46.526;24.612;2022-12-16T08:32:34;4.10;;;3.70;;
75061;SDS011;63641;46.526;24.612;2022-12-16T08:35:27;5.05;;;3.78;;
75061;SDS011;63641;46.526;24.612;2022-12-16T08:38:12;3.70;;;3.33;;
75061;SDS011;63641;46.526;24.612;2022-12-16T08:40:57;3.63;;;3.10;;
75061;SDS011;63641;46.526;24.612;2022-12-16T08:43:43;3.90;;;3.45;;
75061;SDS011;63641;46.526;24.612;2022-12-16T08:46:28;3.47;;;3.00;;
75061;SDS011;63641;46.526;24.612;2022-12-16T08:49:13;4.22;;;3.28;;
75061;SDS011;63641;46.526;24.612;2022-12-16T08:51:59;5.57;;;4.10;;
75061;SDS011;63641;46.526;24.612;2022-12-16T08:54:44;6.38;;;4.47;;
75061;SDS011;63641;46.526;24.612;2022-12-16T08:57:29;3.95;;;3.53;;
75061;SDS011;63641;46.526;24.612;2022-12-16T09:00:15;4.65;;;4.05;;
75061;SDS011;63641;46.526;24.612;2022-12-16T09:03:00;3.72;;;3.40;;
75061;SDS011;63641;46.526;24.612;2022-12-16T09:05:46;6.20;;;4.25;;
75061;SDS011;63641;46.526;24.612;2022-12-16T09:08:32;5.22;;;3.63;;
75061;SDS011;63641;46.526;24.612;2022-12-16T09:11:17;5.60;;;3.70;;
75061;SDS011;63641;46.526;24.612;2022-12-16T09:14:03;6.00;;;4.30;;
75061;SDS011;63641;46.526;24.612;2022-12-16T09:16:48;5.75;;;3.90;;
75061;SDS011;63641;46.526;24.612;2022-12-16T09:19:34;4.47;;;3.80;;
75061;SDS011;63641;46.526;24.612;2022-12-16T09:22:20;5.25;;;3.20;;
75061;SDS011;63641;46.526;24.612;2022-12-16T09:25:06;3.70;;;3.10;;
75061;SDS011;63641;46.526;24.612;2022-12-16T09:27:52;5.57;;;4.07;;
75061;SDS011;63641;46.526;24.612;2022-12-16T09:30:37;4.68;;;3.42;;
75061;SDS011;63641;46.526;24.612;2022-12-16T09:33:23;4.90;;;3.60;;
75061;SDS011;63641;46.526;24.612;2022-12-16T09:36:08;5.88;;;4.50;;
75061;SDS011;63641;46.526;24.612;2022-12-16T09:38:53;7.55;;;5.50;;
75061;SDS011;63641;46.526;24.612;2022-12-16T09:41:40;6.85;;;6.05;;
75061;SDS011;63641;46.526;24.612;2022-12-16T09:48:05;7.78;;;6.22;;
75061;SDS011;63641;46.526;24.612;2022-12-16T09:51:01;6.30;;;5.00;;
75061;SDS011;63641;46.526;24.612;2022-12-16T09:53:50;6.28;;;5.35;;
75061;SDS011;63641;46.526;24.612;2022-12-16T09:56:38;4.60;;;4.00;;
75061;SDS011;63641;46.526;24.612;2022-12-16T09:59:27;3.83;;;3.42;;
75061;SDS011;63641;46.526;24.612;2022-12-16T10:02:16;5.55;;;4.03;;
75061;SDS011;63641;46.526;24.612;2022-12-16T10:05:08;4.40;;;3.97;;
75061;SDS011;63641;46.526;24.612;2022-12-16T10:08:08;7.80;;;5.30;;
75061;SDS011;63641;46.526;24.612;2022-12-16T10:11:25;11.07;;;6.85;;
75061;SDS011;63641;46.526;24.612;2022-12-16T10:15:30;12.48;;;7.40;;
75061;SDS011;63641;46.526;24.612;2022-12-16T10:18:12;14.40;;;9.13;;
75061;SDS011;63641;46.526;24.612;2022-12-16T10:21:08;14.82;;;8.98;;
75061;SDS011;63641;46.526;24.612;2022-12-16T10:24:22;14.70;;;9.20;;
75061;SDS011;63641;46.526;24.612;2022-12-16T10:27:24;11.77;;;6.63;;
75061;SDS011;63641;46.526;24.612;2022-12-16T10:30:18;7.35;;;5.45;;
75061;SDS011;63641;46.526;24.612;2022-12-16T10:33:03;6.85;;;4.90;;
75061;SDS011;63641;46.526;24.612;2022-12-16T10:35:55;4.07;;;3.67;;
75061;SDS011;63641;46.526;24.612;2022-12-16T10:41:36;5.10;;;2.53;;
75061;SDS011;63641;46.526;24.612;2022-12-16T10:44:34;2.38;;;2.17;;
75061;SDS011;63641;46.526;24.612;2022-12-16T10:47:38;2.67;;;2.42;;
75061;SDS011;63641;46.526;24.612;2022-12-16T10:50:23;2.67;;;2.40;;
75061;SDS011;63641;46.526;24.612;2022-12-16T10:53:21;3.05;;;2.58;;
75061;SDS011;63641;46.526;24.612;2022-12-16T10:56:54;3.13;;;2.60;;
75061;SDS011;63641;46.526;24.612;2022-12-16T10:59:18;3.35;;;2.70;;
75061;SDS011;63641;46.526;24.612;2022-12-16T11:02:25;2.20;;;2.00;;
75061;SDS011;63641;46.526;24.612;2022-12-16T11:05:32;3.55;;;2.60;;
75061;SDS011;63641;46.526;24.612;2022-12-16T11:17:25;3.08;;;2.20;;
75061;SDS011;63641;46.526;24.612;2022-12-16T11:29:10;3.08;;;2.20;;
75061;SDS011;63641;46.526;24.612;2022-12-16T11:32:04;3.28;;;2.35;;
75061;SDS011;63641;46.526;24.612;2022-12-16T11:35:09;2.78;;;2.42;;
75061;SDS011;63641;46.526;24.612;2022-12-16T11:37:57;4.25;;;3.00;;
75061;SDS011;63641;46.526;24.612;2022-12-16T11:40:45;2.42;;;2.22;;
75061;SDS011;63641;46.526;24.612;2022-12-16T11:43:31;3.88;;;2.65;;
75061;SDS011;63641;46.526;24.612;2022-12-16T11:46:25;2.58;;;2.38;;
75061;SDS011;63641;46.526;24.612;2022-12-16T11:49:31;3.30;;;2.63;;
75061;SDS011;63641;46.526;24.612;2022-12-16T11:52:18;3.03;;;2.45;;
75061;SDS011;63641;46.526;24.612;2022-12-16T11:55:15;2.53;;;2.33;;
75061;SDS011;63641;46.526;24.612;2022-12-16T11:58:33;3.40;;;2.47;;
75061;SDS011;63641;46.526;24.612;2022-12-16T12:04:51;13.30;;;6.40;;
75061;SDS011;63641;46.526;24.612;2022-12-16T12:07:50;4.80;;;3.50;;
75061;SDS011;63641;46.526;24.612;2022-12-16T12:23:47;3.65;;;2.53;;
75061;SDS011;63641;46.526;24.612;2022-12-16T12:26:57;2.70;;;2.40;;
75061;SDS011;63641;46.526;24.612;2022-12-16T12:30:13;2.63;;;2.42;;
75061;SDS011;63641;46.526;24.612;2022-12-16T12:36:27;3.63;;;2.30;;
75061;SDS011;63641;46.526;24.612;2022-12-16T12:39:43;3.92;;;2.50;;
75061;SDS011;63641;46.526;24.612;2022-12-16T12:42:35;2.85;;;2.30;;
75061;SDS011;63641;46.526;24.612;2022-12-16T12:54:34;3.83;;;2.78;;
75061;SDS011;63641;46.526;24.612;2022-12-16T12:57:41;2.95;;;2.65;;
75061;SDS011;63641;46.526;24.612;2022-12-16T13:00:31;2.78;;;2.58;;
75061;SDS011;63641;46.526;24.612;2022-12-16T13:03:26;4.07;;;2.95;;
75061;SDS011;63641;46.526;24.612;2022-12-16T13:06:22;3.25;;;2.70;;
75061;SDS011;63641;46.526;24.612;2022-12-16T13:09:34;4.53;;;2.50;;
75061;SDS011;63641;46.526;24.612;2022-12-16T13:12:28;3.83;;;3.28;;
75061;SDS011;63641;46.526;24.612;2022-12-16T13:18:29;3.42;;;2.90;;
75061;SDS011;63641;46.526;24.612;2022-12-16T13:27:11;6.35;;;3.42;;
75061;SDS011;63641;46.526;24.612;2022-12-16T13:29:59;10.43;;;7.57;;
75061;SDS011;63641;46.526;24.612;2022-12-16T13:32:55;11.48;;;9.35;;
75061;SDS011;63641;46.526;24.612;2022-12-16T13:35:52;14.68;;;10.00;;
75061;SDS011;63641;46.526;24.612;2022-12-16T13:38:46;12.40;;;9.52;;
75061;SDS011;63641;46.526;24.612;2022-12-16T13:50:40;13.27;;;10.75;;
75061;SDS011;63641;46.526;24.612;2022-12-16T13:53:31;20.88;;;15.48;;
75061;SDS011;63641;46.526;24.612;2022-12-16T13:56:19;16.42;;;12.27;;
75061;SDS011;63641;46.526;24.612;2022-12-16T13:59:42;16.05;;;12.80;;
75061;SDS011;63641;46.526;24.612;2022-12-16T14:02:29;13.32;;;11.48;;
75061;SDS011;63641;46.526;24.612;2022-12-16T14:05:23;15.30;;;11.05;;
75061;SDS011;63641;46.526;24.612;2022-12-16T14:08:16;16.13;;;12.52;;
75061;SDS011;63641;46.526;24.612;2022-12-16T14:14:03;16.15;;;12.70;;
75061;SDS011;63641;46.526;24.612;2022-12-16T14:25:35;12.13;;;9.15;;
75061;SDS011;63641;46.526;24.612;2022-12-16T14:28:27;6.70;;;5.38;;
75061;SDS011;63641;46.526;24.612;2022-12-16T14:31:20;28.85;;;21.45;;
75061;SDS011;63641;46.526;24.612;2022-12-16T14:34:27;8.05;;;6.20;;
75061;SDS011;63641;46.526;24.612;2022-12-16T14:40:27;8.30;;;6.40;;
75061;SDS011;63641;46.526;24.612;2022-12-16T14:43:15;9.00;;;6.55;;
75061;SDS011;63641;46.526;24.612;2022-12-16T14:46:28;7.45;;;5.35;;
75061;SDS011;63641;46.526;24.612;2022-12-16T14:49:27;12.43;;;8.57;;
75061;SDS011;63641;46.526;24.612;2022-12-16T14:52:21;9.13;;;6.90;;
75061;SDS011;63641;46.526;24.612;2022-12-16T15:03:44;27.75;;;21.55;;
75061;SDS011;63641;46.526;24.612;2022-12-16T15:06:33;27.10;;;18.77;;
75061;SDS011;63641;46.526;24.612;2022-12-16T15:09:26;15.23;;;11.90;;
75061;SDS011;63641;46.526;24.612;2022-12-16T15:12:22;15.70;;;11.07;;
75061;SDS011;63641;46.526;24.612;2022-12-16T15:15:17;8.40;;;7.28;;
75061;SDS011;63641;46.526;24.612;2022-12-16T15:18:13;12.25;;;9.35;;
75061;SDS011;63641;46.526;24.612;2022-12-16T15:21:05;11.73;;;9.10;;
75061;SDS011;63641;46.526;24.612;2022-12-16T15:23:52;7.75;;;6.60;;
75061;SDS011;63641;46.526;24.612;2022-12-16T15:26:38;9.30;;;7.32;;
75061;SDS011;63641;46.526;24.612;2022-12-16T15:29:34;8.00;;;7.20;;
75061;SDS011;63641;46.526;24.612;2022-12-16T15:35:36;8.27;;;5.90;;
75061;SDS011;63641;46.526;24.612;2022-12-16T15:38:29;5.72;;;5.10;;
75061;SDS011;63641;46.526;24.612;2022-12-16T15:41:19;7.80;;;6.90;;
75061;SDS011;63641;46.526;24.612;2022-12-16T15:44:14;8.88;;;7.07;;
75061;SDS011;63641;46.526;24.612;2022-12-16T15:47:01;6.70;;;6.00;;
75061;SDS011;63641;46.526;24.612;2022-12-16T15:49:47;8.20;;;5.93;;
75061;SDS011;63641;46.526;24.612;2022-12-16T15:52:38;7.95;;;6.15;;
75061;SDS011;63641;46.526;24.612;2022-12-16T16:01:16;5.00;;;4.50;;
75061;SDS011;63641;46.526;24.612;2022-12-16T16:04:14;7.45;;;6.15;;
75061;SDS011;63641;46.526;24.612;2022-12-16T16:07:07;5.35;;;4.50;;
75061;SDS011;63641;46.526;24.612;2022-12-16T16:12:59;8.63;;;6.75;;
75061;SDS011;63641;46.526;24.612;2022-12-16T16:15:45;8.32;;;7.43;;
75061;SDS011;63641;46.526;24.612;2022-12-16T16:18:31;13.32;;;11.93;;
75061;SDS011;63641;46.526;24.612;2022-12-16T16:21:17;14.60;;;9.38;;
75061;SDS011;63641;46.526;24.612;2022-12-16T16:24:02;8.60;;;7.40;;
75061;SDS011;63641;46.526;24.612;2022-12-16T16:26:48;13.65;;;10.27;;
75061;SDS011;63641;46.526;24.612;2022-12-16T16:29:34;12.45;;;10.82;;
75061;SDS011;63641;46.526;24.612;2022-12-16T16:32:19;10.65;;;9.20;;
75061;SDS011;63641;46.526;24.612;2022-12-16T16:35:04;10.15;;;8.38;;
75061;SDS011;63641;46.526;24.612;2022-12-16T16:37:50;11.93;;;8.20;;
75061;SDS011;63641;46.526;24.612;2022-12-16T16:40:42;9.73;;;7.50;;
75061;SDS011;63641;46.526;24.612;2022-12-16T16:43:32;9.25;;;7.28;;
75061;SDS011;63641;46.526;24.612;2022-12-16T16:49:20;7.07;;;6.32;;
75061;SDS011;63641;46.526;24.612;2022-12-16T16:52:13;14.00;;;12.00;;
75061;SDS011;63641;46.526;24.612;2022-12-16T16:55:03;16.88;;;13.52;;
75061;SDS011;63641;46.526;24.612;2022-12-16T16:57:50;14.02;;;11.93;;
75061;SDS011;63641;46.526;24.612;2022-12-16T17:00:35;11.77;;;9.90;;
75061;SDS011;63641;46.526;24.612;2022-12-16T17:03:20;11.00;;;9.20;;
75061;SDS011;63641;46.526;24.612;2022-12-16T17:06:07;8.98;;;7.07;;
75061;SDS011;63641;46.526;24.612;2022-12-16T17:08:52;8.05;;;7.15;;
75061;SDS011;63641;46.526;24.612;2022-12-16T17:11:38;7.22;;;6.30;;
75061;SDS011;63641;46.526;24.612;2022-12-16T17:14:23;9.48;;;7.38;;
75061;SDS011;63641;46.526;24.612;2022-12-16T17:17:09;8.32;;;7.45;;
75061;SDS011;63641;46.526;24.612;2022-12-16T17:19:54;7.60;;;6.20;;
75061;SDS011;63641;46.526;24.612;2022-12-16T17:22:40;7.88;;;6.32;;
75061;SDS011;63641;46.526;24.612;2022-12-16T17:25:25;7.43;;;6.35;;
75061;SDS011;63641;46.526;24.612;2022-12-16T17:28:10;9.40;;;6.20;;
75061;SDS011;63641;46.526;24.612;2022-12-16T17:30:57;14.65;;;11.10;;
75061;SDS011;63641;46.526;24.612;2022-12-16T17:33:43;17.08;;;12.82;;
75061;SDS011;63641;46.526;24.612;2022-12-16T17:36:28;11.93;;;9.55;;
75061;SDS011;63641;46.526;24.612;2022-12-16T17:39:13;11.70;;;8.75;;
75061;SDS011;63641;46.526;24.612;2022-12-16T17:41:58;8.50;;;6.60;;
75061;SDS011;63641;46.526;24.612;2022-12-16T17:44:44;48.63;;;35.33;;
75061;SDS011;63641;46.526;24.612;2022-12-16T17:47:28;84.32;;;58.80;;
75061;SDS011;63641;46.526;24.612;2022-12-16T17:50:14;66.18;;;48.20;;
75061;SDS011;63641;46.526;24.612;2022-12-16T17:52:59;51.50;;;33.78;;
75061;SDS011;63641;46.526;24.612;2022-12-16T17:55:45;31.38;;;23.98;;
75061;SDS011;63641;46.526;24.612;2022-12-16T17:58:35;16.52;;;14.35;;
75061;SDS011;63641;46.526;24.612;2022-12-16T18:01:23;12.15;;;10.95;;
75061;SDS011;63641;46.526;24.612;2022-12-16T18:04:10;15.20;;;11.65;;
75061;SDS011;63641;46.526;24.612;2022-12-16T18:06:57;9.23;;;8.32;;
75061;SDS011;63641;46.526;24.612;2022-12-16T18:09:43;20.35;;;18.23;;
75061;SDS011;63641;46.526;24.612;2022-12-16T18:12:30;23.23;;;20.23;;
75061;SDS011;63641;46.526;24.612;2022-12-16T18:15:17;10.68;;;9.68;;
75061;SDS011;63641;46.526;24.612;2022-12-16T18:18:04;9.98;;;9.05;;
75061;SDS011;63641;46.526;24.612;2022-12-16T18:20:51;8.77;;;7.88;;
75061;SDS011;63641;46.526;24.612;2022-12-16T18:23:38;9.05;;;8.20;;